sensor_id;sensor_type;location;lat;lon;timestamp;temperature;humidity
9971;DHT22;5026;51.494;11.974;2022-10-10T00:04:42;7.70;99.90
9971;DHT22;5026;51.494;11.974;2022-10-10T00:09:41;7.60;99.90
9971;DHT22;5026;51.494;11.974;2022-10-10T00:14:35;7.40;99.90
9971;DHT22;5026;51.494;11.974;2022-10-10T00:21:58;7.40;99.90
9971;DHT22;5026;51.494;11.974;2022-10-10T00:36:40;7.40;99.90
9971;DHT22;5026;51.494;11.974;2022-10-10T00:39:08;7.40;99.90
9971;DHT22;5026;51.494;11.974;2022-10-10T00:44:04;7.30;99.90
9971;DHT22;5026;51.494;11.974;2022-10-10T00:53:57;7.20;99.90
9971;DHT22;5026;51.494;11.974;2022-10-10T00:56:28;7.20;99.90
9971;DHT22;5026;51.494;11.974;2022-10-10T00:58:57;8.10;99.90
9971;DHT22;5026;51.494;11.974;2022-10-10T01:01:25;7.10;99.90
9971;DHT22;5026;51.494;11.974;2022-10-10T01:11:27;6.90;99.90
9971;DHT22;5026;51.494;11.974;2022-10-10T01:14:02;6.90;99.90
9971;DHT22;5026;51.494;11.974;2022-10-10T01:16:39;6.80;99.90
9971;DHT22;5026;51.494;11.974;2022-10-10T01:19:29;6.80;99.90
9971;DHT22;5026;51.494;11.974;2022-10-10T01:22:11;6.80;99.90
9971;DHT22;5026;51.494;11.974;2022-10-10T01:24:55;6.90;99.90
9971;DHT22;5026;51.494;11.974;2022-10-10T01:27:33;6.90;99.90
9971;DHT22;5026;51.494;11.974;2022-10-10T01:30:06;6.90;99.90
9971;DHT22;5026;51.494;11.974;2022-10-10T01:32:40;7.00;99.90
9971;DHT22;5026;51.494;11.974;2022-10-10T01:35:25;6.90;99.90
9971;DHT22;5026;51.494;11.974;2022-10-10T01:38:04;6.90;99.90
9971;DHT22;5026;51.494;11.974;2022-10-10T01:40:40;6.90;99.90
9971;DHT22;5026;51.494;11.974;2022-10-10T01:45:36;6.80;99.90
9971;DHT22;5026;51.494;11.974;2022-10-10T01:48:04;6.80;99.90
9971;DHT22;5026;51.494;11.974;2022-10-10T01:50:36;6.70;99.90
9971;DHT22;5026;51.494;11.974;2022-10-10T01:53:10;6.70;99.90
9971;DHT22;5026;51.494;11.974;2022-10-10T01:55:52;6.60;99.90
9971;DHT22;5026;51.494;11.974;2022-10-10T01:58:48;6.60;99.90
9971;DHT22;5026;51.494;11.974;2022-10-10T02:01:21;6.60;99.90
9971;DHT22;5026;51.494;11.974;2022-10-10T02:03:54;9.50;99.90
9971;DHT22;5026;51.494;11.974;2022-10-10T02:06:29;6.50;99.90
9971;DHT22;5026;51.494;11.974;2022-10-10T02:09:00;6.50;99.90
9971;DHT22;5026;51.494;11.974;2022-10-10T02:11:32;6.50;99.90
9971;DHT22;5026;51.494;11.974;2022-10-10T02:14:05;6.50;99.90
9971;DHT22;5026;51.494;11.974;2022-10-10T02:16:37;6.40;99.90
9971;DHT22;5026;51.494;11.974;2022-10-10T02:19:07;6.50;99.90
9971;DHT22;5026;51.494;11.974;2022-10-10T02:21:36;6.50;99.90
9971;DHT22;5026;51.494;11.974;2022-10-10T02:24:06;6.50;99.90
9971;DHT22;5026;51.494;11.974;2022-10-10T02:29:04;6.40;99.90
9971;DHT22;5026;51.494;11.974;2022-10-10T02:31:38;6.40;99.90
9971;DHT22;5026;51.494;11.974;2022-10-10T02:34:11;6.50;99.90
9971;DHT22;5026;51.494;11.974;2022-10-10T02:36:39;6.50;99.90
9971;DHT22;5026;51.494;11.974;2022-10-10T02:39:08;6.60;99.90
9971;DHT22;5026;51.494;11.974;2022-10-10T02:46:31;6.70;99.90
9971;DHT22;5026;51.494;11.974;2022-10-10T02:49:00;6.70;99.90
9971;DHT22;5026;51.494;11.974;2022-10-10T03:06:11;6.70;99.90
9971;DHT22;5026;51.494;11.974;2022-10-10T03:11:06;6.60;99.90
9971;DHT22;5026;51.494;11.974;2022-10-10T03:23:24;6.70;99.90
9971;DHT22;5026;51.494;11.974;2022-10-10T03:28:19;6.70;99.90
9971;DHT22;5026;51.494;11.974;2022-10-10T03:40:37;6.70;99.90
9971;DHT22;5026;51.494;11.974;2022-10-10T03:57:49;6.80;99.90
9971;DHT22;5026;51.494;11.974;2022-10-10T04:10:07;6.70;99.90
9971;DHT22;5026;51.494;11.974;2022-10-10T04:15:03;6.70;99.90
9971;DHT22;5026;51.494;11.974;2022-10-10T04:19:57;6.60;99.90
9971;DHT22;5026;51.494;11.974;2022-10-10T04:32:14;6.70;99.90
9971;DHT22;5026;51.494;11.974;2022-10-10T04:49:25;6.70;99.90
9971;DHT22;5026;51.494;11.974;2022-10-10T05:06:36;6.50;99.90
9971;DHT22;5026;51.494;11.974;2022-10-10T05:23:50;6.50;99.90
9971;DHT22;5026;51.494;11.974;2022-10-10T05:36:09;6.50;99.90
9971;DHT22;5026;51.494;11.974;2022-10-10T05:41:05;6.60;99.90
9971;DHT22;5026;51.494;11.974;2022-10-10T05:50:56;6.90;99.90
9971;DHT22;5026;51.494;11.974;2022-10-10T05:53:23;6.90;99.90
9971;DHT22;5026;51.494;11.974;2022-10-10T05:58:19;6.90;99.90
9971;DHT22;5026;51.494;11.974;2022-10-10T06:00:46;6.90;99.90
9971;DHT22;5026;51.494;11.974;2022-10-10T06:03:14;7.00;99.90
9971;DHT22;5026;51.494;11.974;2022-10-10T06:05:42;7.00;99.90
9971;DHT22;5026;51.494;11.974;2022-10-10T06:10:38;7.20;99.90
9971;DHT22;5026;51.494;11.974;2022-10-10T06:15:34;7.20;99.90
9971;DHT22;5026;51.494;11.974;2022-10-10T06:27:49;7.40;99.90
9971;DHT22;5026;51.494;11.974;2022-10-10T06:30:16;7.40;99.90
9971;DHT22;5026;51.494;11.974;2022-10-10T06:32:44;7.50;99.90
9971;DHT22;5026;51.494;11.974;2022-10-10T06:47:28;8.00;99.90
9971;DHT22;5026;51.494;11.974;2022-10-10T06:49:56;8.00;99.90
9971;DHT22;5026;51.494;11.974;2022-10-10T07:07:07;8.70;99.90
9971;DHT22;5026;51.494;11.974;2022-10-10T07:24:19;17.10;95.70
9971;DHT22;5026;51.494;11.974;2022-10-10T07:29:13;21.70;85.20
9971;DHT22;5026;51.494;11.974;2022-10-10T07:34:06;23.50;75.20
9971;DHT22;5026;51.494;11.974;2022-10-10T07:36:33;23.20;73.30
9971;DHT22;5026;51.494;11.974;2022-10-10T07:39:00;24.70;72.60
9971;DHT22;5026;51.494;11.974;2022-10-10T07:41:29;25.40;69.30
9971;DHT22;5026;51.494;11.974;2022-10-10T07:43:56;26.60;67.40
9971;DHT22;5026;51.494;11.974;2022-10-10T07:46:23;27.70;64.90
9971;DHT22;5026;51.494;11.974;2022-10-10T07:48:50;28.70;62.60
9971;DHT22;5026;51.494;11.974;2022-10-10T07:51:17;28.20;60.90
9971;DHT22;5026;51.494;11.974;2022-10-10T07:56:11;25.80;62.70
9971;DHT22;5026;51.494;11.974;2022-10-10T07:58:39;26.30;62.50
9971;DHT22;5026;51.494;11.974;2022-10-10T08:01:07;27.20;62.40
9971;DHT22;5026;51.494;11.974;2022-10-10T08:03:35;27.90;61.20
9971;DHT22;5026;51.494;11.974;2022-10-10T08:06:02;28.80;60.10
9971;DHT22;5026;51.494;11.974;2022-10-10T08:08:29;29.20;60.00
9971;DHT22;5026;51.494;11.974;2022-10-10T08:10:56;28.60;60.10
9971;DHT22;5026;51.494;11.974;2022-10-10T08:13:23;28.60;59.50
9971;DHT22;5026;51.494;11.974;2022-10-10T08:15:52;27.30;60.30
9971;DHT22;5026;51.494;11.974;2022-10-10T08:18:19;27.00;61.00
9971;DHT22;5026;51.494;11.974;2022-10-10T08:20:46;27.40;61.00
9971;DHT22;5026;51.494;11.974;2022-10-10T08:23:13;27.20;60.80
9971;DHT22;5026;51.494;11.974;2022-10-10T08:25:40;27.30;61.30
9971;DHT22;5026;51.494;11.974;2022-10-10T08:28:06;26.90;61.70
9971;DHT22;5026;51.494;11.974;2022-10-10T08:30:33;26.10;62.00
9971;DHT22;5026;51.494;11.974;2022-10-10T08:33:01;25.70;62.30
9971;DHT22;5026;51.494;11.974;2022-10-10T08:37:55;23.70;63.10
9971;DHT22;5026;51.494;11.974;2022-10-10T08:40:22;23.50;63.50
9971;DHT22;5026;51.494;11.974;2022-10-10T08:42:55;23.30;63.80
9971;DHT22;5026;51.494;11.974;2022-10-10T08:45:24;23.10;63.80
9971;DHT22;5026;51.494;11.974;2022-10-10T08:47:55;22.70;64.20
9971;DHT22;5026;51.494;11.974;2022-10-10T08:50:27;22.10;64.90
9971;DHT22;5026;51.494;11.974;2022-10-10T08:52:58;21.50;65.40
9971;DHT22;5026;51.494;11.974;2022-10-10T08:55:29;21.50;66.10
9971;DHT22;5026;51.494;11.974;2022-10-10T08:58:02;21.60;66.30
9971;DHT22;5026;51.494;11.974;2022-10-10T09:00:36;21.60;66.70
9971;DHT22;5026;51.494;11.974;2022-10-10T09:03:13;21.20;66.80
9971;DHT22;5026;51.494;11.974;2022-10-10T09:05:54;20.90;67.20
9971;DHT22;5026;51.494;11.974;2022-10-10T09:08:36;20.80;67.50
9971;DHT22;5026;51.494;11.974;2022-10-10T09:11:12;20.70;68.00
9971;DHT22;5026;51.494;11.974;2022-10-10T09:13:47;20.60;68.10
9971;DHT22;5026;51.494;11.974;2022-10-10T09:16:22;20.60;68.60
9971;DHT22;5026;51.494;11.974;2022-10-10T09:18:59;20.40;68.90
9971;DHT22;5026;51.494;11.974;2022-10-10T09:21:32;20.30;69.50
9971;DHT22;5026;51.494;11.974;2022-10-10T09:24:04;20.40;69.70
9971;DHT22;5026;51.494;11.974;2022-10-10T09:26:36;20.40;69.70
9971;DHT22;5026;51.494;11.974;2022-10-10T09:29:11;20.20;69.90
9971;DHT22;5026;51.494;11.974;2022-10-10T09:31:45;20.00;70.40
9971;DHT22;5026;51.494;11.974;2022-10-10T09:34:16;19.90;71.20
9971;DHT22;5026;51.494;11.974;2022-10-10T09:36:46;19.80;71.60
9971;DHT22;5026;51.494;11.974;2022-10-10T09:39:18;19.90;71.70
9971;DHT22;5026;51.494;11.974;2022-10-10T09:41:52;19.70;72.00
9971;DHT22;5026;51.494;11.974;2022-10-10T09:44:20;19.60;72.20
9971;DHT22;5026;51.494;11.974;2022-10-10T09:49:16;19.20;73.00
9971;DHT22;5026;51.494;11.974;2022-10-10T09:51:45;19.20;73.60
9971;DHT22;5026;51.494;11.974;2022-10-10T09:54:14;18.90;73.90
9971;DHT22;5026;51.494;11.974;2022-10-10T09:56:45;18.70;74.70
9971;DHT22;5026;51.494;11.974;2022-10-10T09:59:35;18.40;75.20
9971;DHT22;5026;51.494;11.974;2022-10-10T10:02:11;18.20;76.10
9971;DHT22;5026;51.494;11.974;2022-10-10T10:07:22;17.90;77.40
9971;DHT22;5026;51.494;11.974;2022-10-10T10:09:51;17.80;78.20
9971;DHT22;5026;51.494;11.974;2022-10-10T10:12:22;17.60;79.00
9971;DHT22;5026;51.494;11.974;2022-10-10T10:14:50;17.60;79.60
9971;DHT22;5026;51.494;11.974;2022-10-10T10:17:21;17.50;80.00
9971;DHT22;5026;51.494;11.974;2022-10-10T10:19:48;17.50;80.50
9971;DHT22;5026;51.494;11.974;2022-10-10T10:22:30;17.40;80.60
9971;DHT22;5026;51.494;11.974;2022-10-10T10:24:58;17.30;81.30
9971;DHT22;5026;51.494;11.974;2022-10-10T10:27:26;17.30;81.80
9971;DHT22;5026;51.494;11.974;2022-10-10T10:29:55;17.30;82.50
9971;DHT22;5026;51.494;11.974;2022-10-10T10:32:37;17.30;83.00
9971;DHT22;5026;51.494;11.974;2022-10-10T10:35:12;17.50;83.30
9971;DHT22;5026;51.494;11.974;2022-10-10T10:38:01;17.30;83.40
9971;DHT22;5026;51.494;11.974;2022-10-10T10:40:35;17.30;84.00
9971;DHT22;5026;51.494;11.974;2022-10-10T10:43:21;17.20;84.40
9971;DHT22;5026;51.494;11.974;2022-10-10T10:46:03;17.20;84.90
9971;DHT22;5026;51.494;11.974;2022-10-10T10:48:39;17.30;84.90
9971;DHT22;5026;51.494;11.974;2022-10-10T10:51:25;17.30;85.30
9971;DHT22;5026;51.494;11.974;2022-10-10T10:54:01;17.20;85.50
9971;DHT22;5026;51.494;11.974;2022-10-10T10:56:35;17.20;85.90
9971;DHT22;5026;51.494;11.974;2022-10-10T10:59:20;17.20;86.20
9971;DHT22;5026;51.494;11.974;2022-10-10T11:01:56;17.20;86.30
9971;DHT22;5026;51.494;11.974;2022-10-10T11:04:48;17.30;86.50
9971;DHT22;5026;51.494;11.974;2022-10-10T11:07:20;17.30;86.90
9971;DHT22;5026;51.494;11.974;2022-10-10T11:09:54;17.40;87.10
9971;DHT22;5026;51.494;11.974;2022-10-10T11:12:43;17.40;86.90
9971;DHT22;5026;51.494;11.974;2022-10-10T11:15:14;17.40;86.90
9971;DHT22;5026;51.494;11.974;2022-10-10T11:17:46;17.40;87.00
9971;DHT22;5026;51.494;11.974;2022-10-10T11:20:20;17.50;87.20
9971;DHT22;5026;51.494;11.974;2022-10-10T11:22:52;17.50;87.20
9971;DHT22;5026;51.494;11.974;2022-10-10T11:25:25;17.60;87.10
9971;DHT22;5026;51.494;11.974;2022-10-10T11:27:58;17.70;86.90
9971;DHT22;5026;51.494;11.974;2022-10-10T11:30:27;17.70;86.70
9971;DHT22;5026;51.494;11.974;2022-10-10T11:33:00;17.70;86.80
9971;DHT22;5026;51.494;11.974;2022-10-10T11:35:33;17.60;87.00
9971;DHT22;5026;51.494;11.974;2022-10-10T11:38:09;17.70;87.10
9971;DHT22;5026;51.494;11.974;2022-10-10T11:40:46;17.70;87.20
9971;DHT22;5026;51.494;11.974;2022-10-10T11:43:21;17.80;87.10
9971;DHT22;5026;51.494;11.974;2022-10-10T11:45:55;17.80;87.30
9971;DHT22;5026;51.494;11.974;2022-10-10T11:48:28;17.80;87.40
9971;DHT22;5026;51.494;11.974;2022-10-10T11:51:01;17.90;87.30
9971;DHT22;5026;51.494;11.974;2022-10-10T11:53:32;17.90;87.20
9971;DHT22;5026;51.494;11.974;2022-10-10T11:56:09;16.30;86.30
9971;DHT22;5026;51.494;11.974;2022-10-10T11:58:40;18.10;87.70
9971;DHT22;5026;51.494;11.974;2022-10-10T12:01:13;18.20;87.70
9971;DHT22;5026;51.494;11.974;2022-10-10T12:03:41;18.30;87.60
9971;DHT22;5026;51.494;11.974;2022-10-10T12:06:16;18.20;87.60
9971;DHT22;5026;51.494;11.974;2022-10-10T12:08:49;18.30;87.30
9971;DHT22;5026;51.494;11.974;2022-10-10T12:11:23;18.10;87.00
9971;DHT22;5026;51.494;11.974;2022-10-10T12:13:53;18.20;87.20
9971;DHT22;5026;51.494;11.974;2022-10-10T12:16:24;18.30;87.50
9971;DHT22;5026;51.494;11.974;2022-10-10T12:18:53;18.90;87.60
9971;DHT22;5026;51.494;11.974;2022-10-10T12:21:23;18.30;87.10
9971;DHT22;5026;51.494;11.974;2022-10-10T12:24:00;18.20;87.30
9971;DHT22;5026;51.494;11.974;2022-10-10T12:29:43;18.30;87.90
9971;DHT22;5026;51.494;11.974;2022-10-10T12:32:25;18.50;87.50
9971;DHT22;5026;51.494;11.974;2022-10-10T12:34:58;18.80;87.20
9971;DHT22;5026;51.494;11.974;2022-10-10T12:37:27;19.00;86.60
9971;DHT22;5026;51.494;11.974;2022-10-10T12:40:17;19.10;86.70
9971;DHT22;5026;51.494;11.974;2022-10-10T12:43:17;19.10;86.50
9971;DHT22;5026;51.494;11.974;2022-10-10T12:46:07;19.10;86.50
9971;DHT22;5026;51.494;11.974;2022-10-10T12:48:34;19.10;86.50
9971;DHT22;5026;51.494;11.974;2022-10-10T12:53:31;19.00;86.40
9971;DHT22;5026;51.494;11.974;2022-10-10T12:56:00;18.80;86.80
9971;DHT22;5026;51.494;11.974;2022-10-10T12:58:30;18.80;86.80
9971;DHT22;5026;51.494;11.974;2022-10-10T13:01:00;18.80;86.90
9971;DHT22;5026;51.494;11.974;2022-10-10T13:03:30;18.90;87.10
9971;DHT22;5026;51.494;11.974;2022-10-10T13:06:03;18.80;87.20
9971;DHT22;5026;51.494;11.974;2022-10-10T13:08:31;18.90;87.20
9971;DHT22;5026;51.494;11.974;2022-10-10T13:11:04;18.80;87.30
9971;DHT22;5026;51.494;11.974;2022-10-10T13:13:32;18.90;87.20
9971;DHT22;5026;51.494;11.974;2022-10-10T13:16:07;18.90;87.40
9971;DHT22;5026;51.494;11.974;2022-10-10T13:18:36;19.00;87.10
9971;DHT22;5026;51.494;11.974;2022-10-10T13:21:06;19.00;86.90
9971;DHT22;5026;51.494;11.974;2022-10-10T13:23:35;19.00;87.20
9971;DHT22;5026;51.494;11.974;2022-10-10T13:28:30;19.00;87.40
9971;DHT22;5026;51.494;11.974;2022-10-10T13:30:57;19.00;87.60
9971;DHT22;5026;51.494;11.974;2022-10-10T13:33:31;19.00;87.40
9971;DHT22;5026;51.494;11.974;2022-10-10T13:36:04;19.00;87.10
9971;DHT22;5026;51.494;11.974;2022-10-10T13:38:32;18.90;87.30
9971;DHT22;5026;51.494;11.974;2022-10-10T13:41:01;19.00;87.30
9971;DHT22;5026;51.494;11.974;2022-10-10T13:43:29;19.00;87.50
9971;DHT22;5026;51.494;11.974;2022-10-10T13:45:57;19.00;87.70
9971;DHT22;5026;51.494;11.974;2022-10-10T13:48:28;18.90;87.70
9971;DHT22;5026;51.494;11.974;2022-10-10T13:51:06;18.80;87.70
9971;DHT22;5026;51.494;11.974;2022-10-10T13:53:45;18.70;87.80
9971;DHT22;5026;51.494;11.974;2022-10-10T13:56:15;18.70;87.70
9971;DHT22;5026;51.494;11.974;2022-10-10T13:58:46;18.70;88.10
9971;DHT22;5026;51.494;11.974;2022-10-10T14:01:28;18.80;88.10
9971;DHT22;5026;51.494;11.974;2022-10-10T14:04:02;18.90;87.80
9971;DHT22;5026;51.494;11.974;2022-10-10T14:06:30;18.90;88.00
9971;DHT22;5026;51.494;11.974;2022-10-10T14:09:10;18.90;88.00
9971;DHT22;5026;51.494;11.974;2022-10-10T14:11:40;18.90;87.70
9971;DHT22;5026;51.494;11.974;2022-10-10T14:14:16;18.80;87.90
9971;DHT22;5026;51.494;11.974;2022-10-10T14:19:16;18.80;88.10
9971;DHT22;5026;51.494;11.974;2022-10-10T14:26:37;18.70;88.40
9971;DHT22;5026;51.494;11.974;2022-10-10T14:29:07;18.70;88.40
9971;DHT22;5026;51.494;11.974;2022-10-10T14:31:36;18.70;88.20
9971;DHT22;5026;51.494;11.974;2022-10-10T14:36:31;18.50;88.60
9971;DHT22;5026;51.494;11.974;2022-10-10T14:43:52;18.50;89.10
9971;DHT22;5026;51.494;11.974;2022-10-10T14:46:19;18.50;89.00
9971;DHT22;5026;51.494;11.974;2022-10-10T14:48:46;18.50;88.90
9971;DHT22;5026;51.494;11.974;2022-10-10T14:51:13;18.30;88.80
9971;DHT22;5026;51.494;11.974;2022-10-10T14:53:41;18.30;89.10
9971;DHT22;5026;51.494;11.974;2022-10-10T14:56:10;18.20;89.20
9971;DHT22;5026;51.494;11.974;2022-10-10T14:58:37;18.10;89.30
9971;DHT22;5026;51.494;11.974;2022-10-10T15:01:04;18.10;89.30
9971;DHT22;5026;51.494;11.974;2022-10-10T15:03:31;18.10;89.50
9971;DHT22;5026;51.494;11.974;2022-10-10T15:05:58;18.10;89.50
9971;DHT22;5026;51.494;11.974;2022-10-10T15:10:53;18.00;89.60
9971;DHT22;5026;51.494;11.974;2022-10-10T15:15:48;17.80;90.00
9971;DHT22;5026;51.494;11.974;2022-10-10T15:20:42;17.80;90.20
9971;DHT22;5026;51.494;11.974;2022-10-10T15:25:40;17.70;90.30
9971;DHT22;5026;51.494;11.974;2022-10-10T15:28:09;17.70;90.40
9971;DHT22;5026;51.494;11.974;2022-10-10T15:30:36;17.70;90.40
9971;DHT22;5026;51.494;11.974;2022-10-10T15:33:03;17.70;90.50
9971;DHT22;5026;51.494;11.974;2022-10-10T15:37:57;17.60;90.70
9971;DHT22;5026;51.494;11.974;2022-10-10T15:40:25;17.50;90.70
9971;DHT22;5026;51.494;11.974;2022-10-10T15:42:52;17.40;90.80
9971;DHT22;5026;51.494;11.974;2022-10-10T15:45:20;17.30;91.00
9971;DHT22;5026;51.494;11.974;2022-10-10T15:52:41;17.20;91.20
9971;DHT22;5026;51.494;11.974;2022-10-10T16:00:04;17.00;91.50
9971;DHT22;5026;51.494;11.974;2022-10-10T16:02:32;16.90;91.60
9971;DHT22;5026;51.494;11.974;2022-10-10T16:07:26;16.80;92.00
9971;DHT22;5026;51.494;11.974;2022-10-10T16:17:14;16.40;92.70
9971;DHT22;5026;51.494;11.974;2022-10-10T16:19:42;17.00;93.00
9971;DHT22;5026;51.494;11.974;2022-10-10T16:24:36;16.20;93.00
9971;DHT22;5026;51.494;11.974;2022-10-10T16:27:03;16.20;93.20
9971;DHT22;5026;51.494;11.974;2022-10-10T16:29:30;16.10;93.30
9971;DHT22;5026;51.494;11.974;2022-10-10T16:31:57;16.00;93.50
9971;DHT22;5026;51.494;11.974;2022-10-10T16:36:52;15.90;94.00
9971;DHT22;5026;51.494;11.974;2022-10-10T16:39:19;15.80;94.00
9971;DHT22;5026;51.494;11.974;2022-10-10T16:46:40;15.60;94.60
9971;DHT22;5026;51.494;11.974;2022-10-10T16:49:07;15.50;94.80
9971;DHT22;5026;51.494;11.974;2022-10-10T16:54:03;15.40;95.00
9971;DHT22;5026;51.494;11.974;2022-10-10T16:56:31;15.30;95.30
9971;DHT22;5026;51.494;11.974;2022-10-10T16:58:59;15.20;95.40
9971;DHT22;5026;51.494;11.974;2022-10-10T17:01:26;15.10;95.60
9971;DHT22;5026;51.494;11.974;2022-10-10T17:03:53;15.00;95.80
9971;DHT22;5026;51.494;11.974;2022-10-10T17:06:22;14.90;96.00
9971;DHT22;5026;51.494;11.974;2022-10-10T17:08:50;14.90;96.30
9971;DHT22;5026;51.494;11.974;2022-10-10T17:11:20;14.90;96.50
9971;DHT22;5026;51.494;11.974;2022-10-10T17:13:48;15.00;96.60
9971;DHT22;5026;51.494;11.974;2022-10-10T17:16:17;14.70;96.60
9971;DHT22;5026;51.494;11.974;2022-10-10T17:18:44;14.70;96.70
9971;DHT22;5026;51.494;11.974;2022-10-10T17:21:14;14.50;96.90
9971;DHT22;5026;51.494;11.974;2022-10-10T17:23:42;14.70;97.10
9971;DHT22;5026;51.494;11.974;2022-10-10T17:26:10;14.70;97.10
9971;DHT22;5026;51.494;11.974;2022-10-10T17:28:39;14.70;97.20
9971;DHT22;5026;51.494;11.974;2022-10-10T17:31:08;14.40;97.20
9971;DHT22;5026;51.494;11.974;2022-10-10T17:33:37;14.50;97.40
9971;DHT22;5026;51.494;11.974;2022-10-10T17:36:08;14.50;97.50
9971;DHT22;5026;51.494;11.974;2022-10-10T17:38:36;14.40;97.50
9971;DHT22;5026;51.494;11.974;2022-10-10T17:41:06;14.40;97.60
9971;DHT22;5026;51.494;11.974;2022-10-10T17:43:33;14.40;97.60
9971;DHT22;5026;51.494;11.974;2022-10-10T17:46:03;14.30;97.70
9971;DHT22;5026;51.494;11.974;2022-10-10T17:48:31;14.30;97.80
9971;DHT22;5026;51.494;11.974;2022-10-10T17:55:53;14.00;98.10
9971;DHT22;5026;51.494;11.974;2022-10-10T18:00:47;13.90;98.50
9971;DHT22;5026;51.494;11.974;2022-10-10T18:03:15;13.90;98.60
9971;DHT22;5026;51.494;11.974;2022-10-10T18:08:09;13.70;98.70
9971;DHT22;5026;51.494;11.974;2022-10-10T18:10:39;13.70;98.80
9971;DHT22;5026;51.494;11.974;2022-10-10T18:13:06;13.60;98.90
9971;DHT22;5026;51.494;11.974;2022-10-10T18:15:33;13.70;99.10
9971;DHT22;5026;51.494;11.974;2022-10-10T18:18:00;13.70;99.20
9971;DHT22;5026;51.494;11.974;2022-10-10T18:20:28;13.80;99.20
9971;DHT22;5026;51.494;11.974;2022-10-10T18:22:55;13.80;99.10
9971;DHT22;5026;51.494;11.974;2022-10-10T18:25:25;13.80;99.10
9971;DHT22;5026;51.494;11.974;2022-10-10T18:27:52;13.80;99.20
9971;DHT22;5026;51.494;11.974;2022-10-10T18:30:19;13.80;99.20
9971;DHT22;5026;51.494;11.974;2022-10-10T18:32:45;13.90;99.30
9971;DHT22;5026;51.494;11.974;2022-10-10T18:35:15;14.00;99.30
9971;DHT22;5026;51.494;11.974;2022-10-10T18:37:43;14.00;99.30
9971;DHT22;5026;51.494;11.974;2022-10-10T18:40:11;14.00;99.30
9971;DHT22;5026;51.494;11.974;2022-10-10T18:42:38;14.00;99.30
9971;DHT22;5026;51.494;11.974;2022-10-10T18:45:06;14.00;99.30
9971;DHT22;5026;51.494;11.974;2022-10-10T18:50:00;13.90;99.50
9971;DHT22;5026;51.494;11.974;2022-10-10T18:52:27;13.90;99.50
9971;DHT22;5026;51.494;11.974;2022-10-10T18:54:55;14.00;99.60
9971;DHT22;5026;51.494;11.974;2022-10-10T18:57:22;14.00;99.50
9971;DHT22;5026;51.494;11.974;2022-10-10T19:02:16;14.00;99.50
9971;DHT22;5026;51.494;11.974;2022-10-10T19:09:39;13.80;99.70
9971;DHT22;5026;51.494;11.974;2022-10-10T19:12:07;13.80;99.80
9971;DHT22;5026;51.494;11.974;2022-10-10T19:14:34;13.70;99.70
9971;DHT22;5026;51.494;11.974;2022-10-10T19:19:29;13.60;99.90
9971;DHT22;5026;51.494;11.974;2022-10-10T19:21:56;13.60;99.90
9971;DHT22;5026;51.494;11.974;2022-10-10T19:26:52;13.50;99.90
9971;DHT22;5026;51.494;11.974;2022-10-10T19:29:22;13.50;99.90
9971;DHT22;5026;51.494;11.974;2022-10-10T19:31:49;13.60;99.90
9971;DHT22;5026;51.494;11.974;2022-10-10T19:34:16;13.60;99.90
9971;DHT22;5026;51.494;11.974;2022-10-10T19:39:10;13.60;99.90
9971;DHT22;5026;51.494;11.974;2022-10-10T19:44:04;13.60;99.90
9971;DHT22;5026;51.494;11.974;2022-10-10T19:46:32;13.60;99.90
9971;DHT22;5026;51.494;11.974;2022-10-10T19:51:28;13.70;99.90
9971;DHT22;5026;51.494;11.974;2022-10-10T19:53:56;13.60;99.90
9971;DHT22;5026;51.494;11.974;2022-10-10T19:56:24;13.60;99.90
9971;DHT22;5026;51.494;11.974;2022-10-10T19:58:52;13.60;99.90
9971;DHT22;5026;51.494;11.974;2022-10-10T20:01:19;13.60;99.90
9971;DHT22;5026;51.494;11.974;2022-10-10T20:03:47;13.60;99.90
9971;DHT22;5026;51.494;11.974;2022-10-10T20:06:16;13.50;99.90
9971;DHT22;5026;51.494;11.974;2022-10-10T20:08:43;13.50;99.90
9971;DHT22;5026;51.494;11.974;2022-10-10T20:11:11;13.50;99.90
9971;DHT22;5026;51.494;11.974;2022-10-10T20:13:38;13.40;99.90
9971;DHT22;5026;51.494;11.974;2022-10-10T20:16:06;13.40;99.90
9971;DHT22;5026;51.494;11.974;2022-10-10T20:18:36;13.30;99.90
9971;DHT22;5026;51.494;11.974;2022-10-10T20:21:09;13.30;99.90
9971;DHT22;5026;51.494;11.974;2022-10-10T20:23:36;13.20;99.90
9971;DHT22;5026;51.494;11.974;2022-10-10T20:26:08;13.30;99.90
9971;DHT22;5026;51.494;11.974;2022-10-10T20:33:29;13.30;99.90
9971;DHT22;5026;51.494;11.974;2022-10-10T20:35:59;13.30;99.90
9971;DHT22;5026;51.494;11.974;2022-10-10T20:38:28;13.40;99.90
9971;DHT22;5026;51.494;11.974;2022-10-10T20:43:22;13.60;99.90
9971;DHT22;5026;51.494;11.974;2022-10-10T20:45:49;13.60;99.90
9971;DHT22;5026;51.494;11.974;2022-10-10T20:50:43;13.60;99.90
9971;DHT22;5026;51.494;11.974;2022-10-10T20:53:10;13.60;99.90
9971;DHT22;5026;51.494;11.974;2022-10-10T20:55:39;13.50;99.90
9971;DHT22;5026;51.494;11.974;2022-10-10T21:00:33;13.50;99.90
9971;DHT22;5026;51.494;11.974;2022-10-10T21:05:26;13.50;99.90
9971;DHT22;5026;51.494;11.974;2022-10-10T21:07:53;13.50;99.90
9971;DHT22;5026;51.494;11.974;2022-10-10T21:10:20;13.40;99.90
9971;DHT22;5026;51.494;11.974;2022-10-10T21:12:48;11.60;99.90
9971;DHT22;5026;51.494;11.974;2022-10-10T21:17:46;13.30;99.90
9971;DHT22;5026;51.494;11.974;2022-10-10T21:20:13;13.30;99.90
9971;DHT22;5026;51.494;11.974;2022-10-10T21:25:07;13.30;99.90
9971;DHT22;5026;51.494;11.974;2022-10-10T21:27:36;13.40;99.90
9971;DHT22;5026;51.494;11.974;2022-10-10T21:30:06;13.50;99.90
9971;DHT22;5026;51.494;11.974;2022-10-10T21:32:33;13.50;99.90
9971;DHT22;5026;51.494;11.974;2022-10-10T21:34:59;13.50;99.90
9971;DHT22;5026;51.494;11.974;2022-10-10T21:47:16;13.60;99.90
9971;DHT22;5026;51.494;11.974;2022-10-10T21:49:43;13.60;99.90
9971;DHT22;5026;51.494;11.974;2022-10-10T21:54:37;13.50;99.90
9971;DHT22;5026;51.494;11.974;2022-10-10T21:59:31;13.60;99.90
9971;DHT22;5026;51.494;11.974;2022-10-10T22:01:58;13.50;99.90
9971;DHT22;5026;51.494;11.974;2022-10-10T22:04:26;13.50;99.90
9971;DHT22;5026;51.494;11.974;2022-10-10T22:06:53;13.40;99.90
9971;DHT22;5026;51.494;11.974;2022-10-10T22:11:46;13.40;99.90
9971;DHT22;5026;51.494;11.974;2022-10-10T22:19:08;15.50;99.90
9971;DHT22;5026;51.494;11.974;2022-10-10T22:21:36;13.40;99.90
9971;DHT22;5026;51.494;11.974;2022-10-10T22:24:06;13.50;99.90
9971;DHT22;5026;51.494;11.974;2022-10-10T22:26:33;13.50;99.90
9971;DHT22;5026;51.494;11.974;2022-10-10T22:31:27;13.50;99.90
9971;DHT22;5026;51.494;11.974;2022-10-10T22:36:21;13.50;99.90
9971;DHT22;5026;51.494;11.974;2022-10-10T22:38:50;13.40;99.90
9971;DHT22;5026;51.494;11.974;2022-10-10T22:41:17;13.40;99.90
9971;DHT22;5026;51.494;11.974;2022-10-10T22:43:43;13.30;99.90
9971;DHT22;5026;51.494;11.974;2022-10-10T22:48:38;13.30;99.90
9971;DHT22;5026;51.494;11.974;2022-10-10T22:51:07;14.00;99.90
9971;DHT22;5026;51.494;11.974;2022-10-10T22:53:34;13.50;99.90
9971;DHT22;5026;51.494;11.974;2022-10-10T22:56:03;13.60;99.90
9971;DHT22;5026;51.494;11.974;2022-10-10T22:58:30;13.60;99.90
9971;DHT22;5026;51.494;11.974;2022-10-10T23:01:02;13.50;99.90
9971;DHT22;5026;51.494;11.974;2022-10-10T23:05:56;13.70;99.90
9971;DHT22;5026;51.494;11.974;2022-10-10T23:10:50;13.80;99.90